createdAt,value
2023-03-25T00:00:44.690Z,8.89
2023-03-25T00:02:49.348Z,8.91
2023-03-25T00:04:54.870Z,8.91
2023-03-25T00:06:56.821Z,8.91
2023-03-25T00:08:58.298Z,8.92
2023-03-25T00:11:01.411Z,8.93
2023-03-25T00:13:05.543Z,8.94
2023-03-25T00:15:08.725Z,8.96
2023-03-25T00:17:10.972Z,8.98
2023-03-25T00:19:13.665Z,8.98
2023-03-25T00:21:15.227Z,8.97
2023-03-25T00:23:19.644Z,8.98
2023-03-25T00:25:21.983Z,8.99
2023-03-25T00:27:23.478Z,9.04
2023-03-25T00:29:24.984Z,9.08
2023-03-25T00:31:26.945Z,9.08
2023-03-25T00:33:29.364Z,9.09
2023-03-25T00:35:31.203Z,9.10
2023-03-25T00:37:32.694Z,9.09
2023-03-25T00:39:34.160Z,9.12
2023-03-25T00:41:37.201Z,9.13
2023-03-25T00:43:39.435Z,9.17
2023-03-25T00:45:41.164Z,9.16
2023-03-25T00:47:43.648Z,9.19
2023-03-25T00:49:45.389Z,9.19
2023-03-25T00:51:52.489Z,9.20
2023-03-25T00:53:56.922Z,9.19
2023-03-25T00:55:58.606Z,9.21
2023-03-25T00:58:00.252Z,9.21
2023-03-25T01:00:02.200Z,9.23
2023-03-25T01:02:06.761Z,9.21
2023-03-25T01:04:12.600Z,9.23
2023-03-25T01:06:16.364Z,9.24
2023-03-25T01:08:17.816Z,9.24
2023-03-25T01:10:19.473Z,9.24
2023-03-25T01:12:21.408Z,9.20
2023-03-25T01:14:29.254Z,9.24
2023-03-25T01:16:30.841Z,9.21
2023-03-25T01:18:34.908Z,9.21
2023-03-25T01:20:36.658Z,9.21
2023-03-25T01:22:38.163Z,9.21
2023-03-25T01:24:39.707Z,9.19
2023-03-25T01:26:43.581Z,9.19
2023-03-25T01:28:45.627Z,9.21
2023-03-25T01:30:47.149Z,9.20
2023-03-25T01:32:48.707Z,9.22
2023-03-25T01:34:50.387Z,9.20
2023-03-25T01:36:55.589Z,9.21
2023-03-25T01:38:59.213Z,9.23
2023-03-25T01:41:00.856Z,9.24
2023-03-25T01:43:02.339Z,9.21
2023-03-25T01:45:19.428Z,9.24
2023-03-25T01:47:22.754Z,9.22
2023-03-25T01:49:31.295Z,9.24
2023-03-25T01:51:37.465Z,9.24
2023-03-25T01:53:39.457Z,9.25
2023-03-25T01:55:41.038Z,9.22
2023-03-25T01:57:46.266Z,9.23
2023-03-25T01:59:50.595Z,9.21
2023-03-25T02:01:53.680Z,9.18
2023-03-25T02:04:03.044Z,9.18
2023-03-25T02:06:11.070Z,9.16
2023-03-25T02:08:15.885Z,9.13
2023-03-25T02:10:18.724Z,9.11
2023-03-25T02:12:20.216Z,9.15
2023-03-25T02:14:26.925Z,9.16
2023-03-25T02:16:43.581Z,9.17
2023-03-25T02:19:28.065Z,9.15
2023-03-25T02:21:50.219Z,9.17
2023-03-25T02:24:06.982Z,9.18
2023-03-25T02:26:08.376Z,9.15
2023-03-25T02:28:38.788Z,9.18
2023-03-25T02:30:58.328Z,9.18
2023-03-25T02:33:31.160Z,9.17
2023-03-25T02:35:53.398Z,9.15
2023-03-25T02:38:07.003Z,9.15
2023-03-25T02:41:01.100Z,9.15
2023-03-25T02:43:14.473Z,9.13
2023-03-25T02:45:25.655Z,9.16
2023-03-25T02:47:33.382Z,9.17
2023-03-25T02:49:58.255Z,9.17
2023-03-25T02:52:20.694Z,9.17
2023-03-25T02:54:25.516Z,9.18
2023-03-25T02:56:29.466Z,9.17
2023-03-25T02:58:33.024Z,9.18
2023-03-25T03:00:38.315Z,9.14
2023-03-25T03:02:40.677Z,9.11
2023-03-25T03:04:52.015Z,9.09
2023-03-25T03:06:56.580Z,9.06
2023-03-25T03:09:06.782Z,9.03
2023-03-25T03:11:31.971Z,9.03
2023-03-25T03:13:39.371Z,9.01
2023-03-25T03:15:53.420Z,9.01
2023-03-25T03:17:56.210Z,9.03
2023-03-25T03:20:32.703Z,9.03
2023-03-25T03:23:02.087Z,9.01
2023-03-25T03:25:22.760Z,9.01
2023-03-25T03:27:40.538Z,9.01
2023-03-25T03:29:52.465Z,8.99
2023-03-25T03:32:16.458Z,9.02
2023-03-25T03:34:27.446Z,9.01
2023-03-25T03:36:35.139Z,9.02
2023-03-25T03:39:00.298Z,9.06
2023-03-25T03:41:09.642Z,9.06
2023-03-25T03:43:18.505Z,9.07
2023-03-25T03:45:23.940Z,9.09
2023-03-25T03:47:32.221Z,9.09
2023-03-25T03:49:42.392Z,9.09
2023-03-25T03:51:52.676Z,9.08
2023-03-25T03:54:08.608Z,9.07
2023-03-25T03:56:23.123Z,9.04
2023-03-25T03:58:29.941Z,9.02
2023-03-25T04:01:09.903Z,9.03
2023-03-25T04:03:25.954Z,9.01
2023-03-25T04:05:30.907Z,8.99
2023-03-25T04:07:54.698Z,8.95
2023-03-25T04:10:17.833Z,8.92
2023-03-25T04:12:24.452Z,8.88
2023-03-25T04:14:26.398Z,8.84
2023-03-25T04:16:28.542Z,8.81
2023-03-25T04:18:33.702Z,8.77
2023-03-25T04:20:36.613Z,8.74
2023-03-25T04:22:38.494Z,8.71
2023-03-25T04:24:41.602Z,8.70
2023-03-25T04:26:43.790Z,8.69
2023-03-25T04:28:45.226Z,8.63
2023-03-25T04:30:48.575Z,8.62
2023-03-25T04:32:51.639Z,8.60
2023-03-25T04:34:57.676Z,8.58
2023-03-25T04:36:59.148Z,8.52
2023-03-25T04:39:01.244Z,8.51
2023-03-25T04:41:06.851Z,8.45
2023-03-25T04:43:08.473Z,8.42
2023-03-25T04:45:16.417Z,8.41
2023-03-25T04:47:21.117Z,8.38
2023-03-25T04:49:23.724Z,8.37
2023-03-25T04:51:25.216Z,8.38
2023-03-25T04:53:27.828Z,8.39
2023-03-25T04:55:29.922Z,8.38
2023-03-25T04:57:31.391Z,8.37
2023-03-25T04:59:32.861Z,8.36
2023-03-25T05:01:37.833Z,8.37
2023-03-25T05:03:40.165Z,8.38
2023-03-25T05:05:42.140Z,8.36
2023-03-25T05:07:45.401Z,8.37
2023-03-25T05:09:46.854Z,8.39
2023-03-25T05:11:49.653Z,8.39
2023-03-25T05:13:51.171Z,8.41
2023-03-25T05:15:52.972Z,8.41
2023-03-25T05:17:54.692Z,8.42
2023-03-25T05:19:56.935Z,8.43
2023-03-25T05:21:58.418Z,8.46
2023-03-25T05:24:01.721Z,8.46
2023-03-25T05:26:03.541Z,8.47
2023-03-25T05:28:06.070Z,8.48
2023-03-25T05:30:08.126Z,8.52
2023-03-25T05:32:09.642Z,8.49
2023-03-25T05:34:11.448Z,8.48
2023-03-25T05:36:13.886Z,8.49
2023-03-25T05:38:19.184Z,8.52
2023-03-25T05:40:21.379Z,8.53
2023-03-25T05:42:23.833Z,8.53
2023-03-25T05:44:26.164Z,8.53
2023-03-25T05:46:31.732Z,8.54
2023-03-25T05:48:33.284Z,8.53
2023-03-25T05:50:37.629Z,8.54
2023-03-25T05:52:41.727Z,8.58
2023-03-25T05:54:45.147Z,8.59
2023-03-25T05:56:46.753Z,8.59
2023-03-25T05:58:49.708Z,8.60
2023-03-25T06:00:51.864Z,8.64
2023-03-25T06:02:53.488Z,8.67
2023-03-25T06:04:55.339Z,8.68
2023-03-25T06:06:56.789Z,8.70
2023-03-25T06:08:58.739Z,8.72
2023-03-25T06:11:00.826Z,8.72
2023-03-25T06:13:02.557Z,8.73
2023-03-25T06:15:08.592Z,8.75
2023-03-25T06:17:10.970Z,8.74
2023-03-25T06:19:12.550Z,8.73
2023-03-25T06:21:13.976Z,8.74
2023-03-25T06:23:15.734Z,8.71
2023-03-25T06:25:19.798Z,8.68
2023-03-25T06:27:22.004Z,8.66
2023-03-25T06:29:23.506Z,8.66
2023-03-25T06:31:27.714Z,8.66
2023-03-25T06:33:42.771Z,8.70
2023-03-25T06:35:53.608Z,8.78
2023-03-25T06:37:55.442Z,8.82
2023-03-25T06:39:56.950Z,8.87
2023-03-25T06:41:59.031Z,8.90
2023-03-25T06:44:00.706Z,8.99
2023-03-25T06:46:02.493Z,9.03
2023-03-25T06:48:05.414Z,9.11
2023-03-25T06:50:07.882Z,9.15
2023-03-25T06:52:09.400Z,9.17
2023-03-25T06:54:10.949Z,9.19
2023-03-25T06:56:12.407Z,9.26
2023-03-25T06:58:14.132Z,9.33
2023-03-25T07:00:20.278Z,9.40
2023-03-25T07:02:21.772Z,9.44
2023-03-25T07:04:23.313Z,9.48
2023-03-25T07:06:25.058Z,9.51
2023-03-25T07:08:26.677Z,9.54
2023-03-25T07:10:28.218Z,9.56
2023-03-25T07:12:29.862Z,9.61
2023-03-25T07:14:31.327Z,9.65
2023-03-25T07:16:32.944Z,9.68
2023-03-25T07:18:34.468Z,9.68
2023-03-25T07:20:36.032Z,9.67
2023-03-25T07:22:37.537Z,9.68
2023-03-25T07:24:38.985Z,9.67
2023-03-25T07:26:40.630Z,9.66
2023-03-25T07:28:42.134Z,9.66
2023-03-25T07:30:43.677Z,9.62
2023-03-25T07:32:45.969Z,9.56
2023-03-25T07:34:47.575Z,9.52
2023-03-25T07:36:49.093Z,9.47
2023-03-25T07:38:50.587Z,9.41
2023-03-25T07:40:52.048Z,9.35
2023-03-25T07:42:53.501Z,9.37
2023-03-25T07:44:54.935Z,9.39
2023-03-25T07:46:56.540Z,9.43
2023-03-25T07:48:58.044Z,9.47
2023-03-25T07:50:59.521Z,9.51
2023-03-25T07:53:01.024Z,9.52
2023-03-25T07:55:02.471Z,9.46
2023-03-25T07:57:04.123Z,9.40
2023-03-25T07:59:05.603Z,9.31
2023-03-25T08:01:07.242Z,9.19
2023-03-25T08:03:11.859Z,9.03
2023-03-25T08:05:21.591Z,8.86
2023-03-25T08:07:23.431Z,8.70
2023-03-25T08:09:24.897Z,8.45
2023-03-25T08:11:26.370Z,8.25
2023-03-25T08:13:28.510Z,8.11
2023-03-25T08:15:30.006Z,8.05
2023-03-25T08:17:31.630Z,7.95
2023-03-25T08:19:33.676Z,7.86
2023-03-25T08:21:35.482Z,7.80
2023-03-25T08:23:37.553Z,7.74
2023-03-25T08:25:41.733Z,7.72
2023-03-25T08:27:43.312Z,7.64
2023-03-25T08:29:47.209Z,7.61
2023-03-25T08:31:52.328Z,7.58
2023-03-25T08:33:53.994Z,7.63
2023-03-25T08:35:57.714Z,7.64
2023-03-25T08:38:01.343Z,7.63
2023-03-25T08:40:07.585Z,7.63
2023-03-25T08:42:09.512Z,7.60
2023-03-25T08:44:11.935Z,7.63
2023-03-25T08:46:13.779Z,7.72
2023-03-25T08:48:15.516Z,7.86
2023-03-25T08:50:17.107Z,7.95
2023-03-25T08:52:18.748Z,8.08
2023-03-25T08:54:20.534Z,8.20
2023-03-25T08:56:22.085Z,8.31
2023-03-25T08:58:25.186Z,8.39
2023-03-25T09:00:27.346Z,8.48
2023-03-25T09:02:28.849Z,8.59
2023-03-25T09:04:30.902Z,8.70
2023-03-25T09:06:47.278Z,8.78
2023-03-25T09:08:50.235Z,8.91
2023-03-25T09:10:54.539Z,9.05
2023-03-25T09:12:56.758Z,9.18
2023-03-25T09:14:58.250Z,9.32
2023-03-25T09:16:59.762Z,9.42
2023-03-25T09:19:02.132Z,9.48
2023-03-25T09:21:04.453Z,9.54
2023-03-25T09:23:05.905Z,9.54
2023-03-25T09:25:08.160Z,9.49
2023-03-25T09:27:09.724Z,9.47
2023-03-25T09:29:11.185Z,9.43
2023-03-25T09:31:12.849Z,9.46
2023-03-25T09:33:14.429Z,9.50
2023-03-25T09:35:15.949Z,9.52
2023-03-25T09:37:18.138Z,9.53
2023-03-25T09:39:20.040Z,9.55
2023-03-25T09:41:30.550Z,9.56
2023-03-25T09:43:56.983Z,9.55
2023-03-25T09:45:59.879Z,9.57
2023-03-25T09:48:10.698Z,9.63
2023-03-25T09:50:15.822Z,9.77
2023-03-25T09:52:24.156Z,9.92
2023-03-25T09:54:28.623Z,9.99
2023-03-25T09:56:37.494Z,9.99
2023-03-25T09:58:49.497Z,10.02
2023-03-25T10:01:03.316Z,10.04
2023-03-25T10:03:46.096Z,9.97
2023-03-25T10:06:09.341Z,9.88
2023-03-25T10:08:26.445Z,9.76
2023-03-25T10:10:36.880Z,9.65
2023-03-25T10:12:43.607Z,9.55
2023-03-25T10:15:18.237Z,9.42
2023-03-25T10:17:45.968Z,9.30
2023-03-25T10:19:54.213Z,9.20
2023-03-25T10:22:37.433Z,9.15
2023-03-25T10:24:56.771Z,9.09
2023-03-25T10:27:32.212Z,9.11
2023-03-25T10:29:46.849Z,9.15
2023-03-25T10:31:53.889Z,9.14
2023-03-25T10:34:01.316Z,9.12
2023-03-25T10:36:06.575Z,9.15
2023-03-25T10:38:18.750Z,9.34
2023-03-25T10:40:27.203Z,9.43
2023-03-25T10:42:35.147Z,9.56
2023-03-25T10:44:36.637Z,9.69
2023-03-25T10:46:50.738Z,9.82
2023-03-25T10:48:52.469Z,9.91
2023-03-25T10:51:10.799Z,10.04
2023-03-25T10:53:26.257Z,10.31
2023-03-25T10:55:34.911Z,10.53
2023-03-25T10:57:36.900Z,10.74
2023-03-25T11:00:01.651Z,10.89
2023-03-25T11:02:17.456Z,10.99
2023-03-25T11:04:21.564Z,11.04
2023-03-25T11:06:29.783Z,10.97
2023-03-25T11:08:31.392Z,10.90
2023-03-25T11:10:34.324Z,11.04
2023-03-25T11:12:42.949Z,11.22
2023-03-25T11:14:44.591Z,11.25
2023-03-25T11:16:49.220Z,11.17
2023-03-25T11:18:52.888Z,11.10
2023-03-25T11:21:02.647Z,11.02
2023-03-25T11:23:19.348Z,11.11
2023-03-25T11:25:29.259Z,11.30
2023-03-25T11:27:46.023Z,11.30
2023-03-25T11:29:57.757Z,11.24
2023-03-25T11:32:33.353Z,11.23
2023-03-25T11:34:42.070Z,11.44
2023-03-25T11:36:59.181Z,11.67
2023-03-25T11:39:16.467Z,11.85
2023-03-25T11:41:18.029Z,12.14
2023-03-25T11:43:22.847Z,12.12
2023-03-25T11:45:40.000Z,11.93
2023-03-25T11:47:42.238Z,11.82
2023-03-25T11:49:49.348Z,11.79
2023-03-25T11:51:57.964Z,11.70
2023-03-25T11:54:01.485Z,11.50
2023-03-25T11:56:08.229Z,11.42
2023-03-25T11:58:17.350Z,11.44
2023-03-25T12:00:25.166Z,11.58
2023-03-25T12:02:31.129Z,11.64
2023-03-25T12:04:32.721Z,11.54
2023-03-25T12:06:34.388Z,11.37
2023-03-25T12:08:43.095Z,11.22
2023-03-25T12:10:50.547Z,11.12
2023-03-25T12:13:04.529Z,11.11
2023-03-25T12:15:06.860Z,11.46
2023-03-25T12:17:42.328Z,11.50
2023-03-25T12:20:33.603Z,11.23
2023-03-25T12:23:05.567Z,10.98
2023-03-25T12:25:26.385Z,10.81
2023-03-25T12:27:40.322Z,10.63
2023-03-25T12:30:02.784Z,10.47
2023-03-25T12:32:16.620Z,10.24
2023-03-25T12:34:39.819Z,9.95
2023-03-25T12:36:43.940Z,9.56
2023-03-25T12:38:55.539Z,9.28
2023-03-25T12:41:20.121Z,9.15
2023-03-25T12:43:42.986Z,9.08
2023-03-25T12:46:03.954Z,9.02
2023-03-25T12:48:23.380Z,8.96
2023-03-25T12:51:21.254Z,8.90
2023-03-25T12:53:47.574Z,8.89
2023-03-25T12:56:09.961Z,9.18
2023-03-25T12:58:33.681Z,9.67
2023-03-25T13:00:53.667Z,9.88
2023-03-25T13:03:32.891Z,9.92
2023-03-25T13:06:06.236Z,9.91
2023-03-25T13:08:14.738Z,9.86
2023-03-25T13:10:24.942Z,9.83
2023-03-25T13:12:35.194Z,9.73
2023-03-25T13:14:42.580Z,9.65
2023-03-25T13:16:45.383Z,9.59
2023-03-25T13:18:49.789Z,9.59
2023-03-25T13:21:14.067Z,9.56
2023-03-25T13:23:21.484Z,9.58
2023-03-25T13:25:44.733Z,9.65
2023-03-25T13:27:48.886Z,9.69
2023-03-25T13:29:54.651Z,9.79
2023-03-25T13:32:01.306Z,9.87
2023-03-25T13:34:16.463Z,10.16
2023-03-25T13:36:26.995Z,10.43
2023-03-25T13:38:34.091Z,10.62
2023-03-25T13:41:03.559Z,10.86
2023-03-25T13:43:21.952Z,11.01
2023-03-25T13:45:25.242Z,11.25
2023-03-25T13:47:31.899Z,11.33
2023-03-25T13:49:42.397Z,11.45
2023-03-25T13:51:43.879Z,11.52
2023-03-25T13:54:01.775Z,11.47
2023-03-25T13:56:06.327Z,11.30
2023-03-25T13:58:13.022Z,11.15
2023-03-25T14:00:25.138Z,11.08
2023-03-25T14:02:54.078Z,11.01
2023-03-25T14:05:16.485Z,11.10
2023-03-25T14:08:12.316Z,11.05
2023-03-25T14:10:23.046Z,10.97
2023-03-25T14:12:27.305Z,10.96
2023-03-25T14:14:35.467Z,11.07
2023-03-25T14:16:44.990Z,11.16
2023-03-25T14:18:49.569Z,11.33
2023-03-25T14:20:51.631Z,11.57
2023-03-25T14:23:04.309Z,11.65
2023-03-25T14:25:07.019Z,11.54
2023-03-25T14:27:30.017Z,11.31
2023-03-25T14:29:34.273Z,11.13
2023-03-25T14:31:36.411Z,10.99
2023-03-25T14:34:10.633Z,10.88
2023-03-25T14:36:12.232Z,10.78
2023-03-25T14:38:18.109Z,10.74
2023-03-25T14:40:54.931Z,10.69
2023-03-25T14:43:00.937Z,10.65
2023-03-25T14:45:31.991Z,10.64
2023-03-25T14:47:35.426Z,10.57
2023-03-25T14:50:04.621Z,10.52
2023-03-25T14:52:15.852Z,10.45
2023-03-25T14:54:37.774Z,10.39
2023-03-25T14:56:57.560Z,10.28
2023-03-25T14:59:07.927Z,10.15
2023-03-25T15:01:14.761Z,10.05
2023-03-25T15:03:18.735Z,9.94
2023-03-25T15:05:29.344Z,9.91
2023-03-25T15:08:00.192Z,9.95
2023-03-25T15:10:02.110Z,10.04
2023-03-25T15:12:05.619Z,10.17
2023-03-25T15:14:22.127Z,10.46
2023-03-25T15:16:26.705Z,10.67
2023-03-25T15:18:37.315Z,10.84
2023-03-25T15:20:38.991Z,10.96
2023-03-25T15:22:40.517Z,11.01
2023-03-25T15:24:47.665Z,10.99
2023-03-25T15:26:49.800Z,10.91
2023-03-25T15:29:08.820Z,10.86
2023-03-25T15:31:25.407Z,10.81
2023-03-25T15:33:46.180Z,10.79
2023-03-25T15:36:15.293Z,10.76
2023-03-25T15:38:32.492Z,10.70
2023-03-25T15:40:52.759Z,10.64
2023-03-25T15:43:03.569Z,10.56
2023-03-25T15:45:45.693Z,10.54
2023-03-25T15:48:07.824Z,10.49
2023-03-25T15:50:38.337Z,10.41
2023-03-25T15:53:39.477Z,10.35
2023-03-25T15:56:01.270Z,10.34
2023-03-25T15:58:07.741Z,10.32
2023-03-25T16:00:29.659Z,10.33
2023-03-25T16:02:37.035Z,10.29
2023-03-25T16:04:44.902Z,10.27
2023-03-25T16:06:50.913Z,10.25
2023-03-25T16:08:54.970Z,10.23
2023-03-25T16:10:56.484Z,10.17
2023-03-25T16:12:57.997Z,9.72
2023-03-25T16:14:59.496Z,9.31
2023-03-25T16:17:04.533Z,9.09
2023-03-25T16:19:11.781Z,8.84
2023-03-25T16:21:14.845Z,8.70
2023-03-25T16:23:21.696Z,8.61
2023-03-25T16:25:35.338Z,8.65
2023-03-25T16:27:42.165Z,8.62
2023-03-25T16:29:48.429Z,8.60
2023-03-25T16:31:54.305Z,8.59
2023-03-25T16:33:59.677Z,8.60
2023-03-25T16:36:04.313Z,8.61
2023-03-25T16:38:07.284Z,8.59
2023-03-25T16:40:18.427Z,8.54
2023-03-25T16:42:26.476Z,8.52
2023-03-25T16:44:28.064Z,8.48
2023-03-25T16:46:29.975Z,8.50
2023-03-25T16:48:36.647Z,8.54
2023-03-25T16:50:39.686Z,8.59
2023-03-25T16:52:42.134Z,8.62
2023-03-25T16:54:52.697Z,8.65
2023-03-25T16:56:54.885Z,8.62
2023-03-25T16:58:58.787Z,8.57
2023-03-25T17:01:02.042Z,8.58
2023-03-25T17:03:05.806Z,8.54
2023-03-25T17:05:23.881Z,8.59
2023-03-25T17:07:27.935Z,8.56
2023-03-25T17:09:35.364Z,8.57
2023-03-25T17:11:36.884Z,8.56
2023-03-25T17:13:51.754Z,8.57
2023-03-25T17:15:53.600Z,8.57
2023-03-25T17:18:01.424Z,8.57
2023-03-25T17:20:11.269Z,8.56
2023-03-25T17:22:20.230Z,8.56
2023-03-25T17:24:24.266Z,8.57
2023-03-25T17:26:31.629Z,8.58
2023-03-25T17:28:40.317Z,8.59
2023-03-25T17:30:44.663Z,8.63
2023-03-25T17:32:46.681Z,8.63
2023-03-25T17:35:06.519Z,8.64
2023-03-25T17:37:13.684Z,8.63
2023-03-25T17:39:21.633Z,8.63
2023-03-25T17:41:28.883Z,8.64
2023-03-25T17:43:33.873Z,8.64
2023-03-25T17:45:35.558Z,8.61
2023-03-25T17:47:37.035Z,8.54
2023-03-25T17:49:38.529Z,8.47
2023-03-25T17:51:41.074Z,8.35
2023-03-25T17:53:42.592Z,8.28
2023-03-25T17:55:45.262Z,8.25
2023-03-25T17:57:47.274Z,8.21
2023-03-25T17:59:49.027Z,8.16
2023-03-25T18:01:50.605Z,8.15
2023-03-25T18:03:52.205Z,8.10
2023-03-25T18:05:54.451Z,8.10
2023-03-25T18:07:58.155Z,8.09
2023-03-25T18:10:00.022Z,8.10
2023-03-25T18:12:01.646Z,8.09
2023-03-25T18:14:03.149Z,8.07
2023-03-25T18:16:05.562Z,8.08
2023-03-25T18:18:18.008Z,8.07
2023-03-25T18:20:26.244Z,8.08
2023-03-25T18:22:27.724Z,8.09
2023-03-25T18:24:29.592Z,8.13
2023-03-25T18:26:31.229Z,8.16
2023-03-25T18:28:34.460Z,8.18
2023-03-25T18:31:05.216Z,8.16
2023-03-25T18:33:06.692Z,8.17
2023-03-25T18:35:08.726Z,8.16
2023-03-25T18:37:11.899Z,8.16
2023-03-25T18:39:19.316Z,8.16
2023-03-25T18:41:20.910Z,8.16
2023-03-25T18:43:22.949Z,8.17
2023-03-25T18:45:25.851Z,8.16
2023-03-25T18:47:27.439Z,8.16
2023-03-25T18:49:29.067Z,8.13
2023-03-25T18:51:31.236Z,8.14
2023-03-25T18:53:32.772Z,8.11
2023-03-25T18:55:37.161Z,8.08
2023-03-25T18:57:38.785Z,8.08
2023-03-25T18:59:40.230Z,8.06
2023-03-25T19:01:42.456Z,8.06
2023-03-25T19:03:44.834Z,8.07
2023-03-25T19:05:46.752Z,8.03
2023-03-25T19:07:49.379Z,8.04
2023-03-25T19:09:53.104Z,8.03
2023-03-25T19:11:54.956Z,8.02
2023-03-25T19:13:56.704Z,8.01
2023-03-25T19:15:58.223Z,7.99
2023-03-25T19:18:01.707Z,7.95
2023-03-25T19:20:04.597Z,7.93
2023-03-25T19:22:06.054Z,7.93
2023-03-25T19:24:07.686Z,7.92
2023-03-25T19:26:09.176Z,7.93
2023-03-25T19:28:11.307Z,7.93
2023-03-25T19:30:16.482Z,7.93
2023-03-25T19:32:18.071Z,7.92
2023-03-25T19:34:22.079Z,7.93
2023-03-25T19:36:25.755Z,7.94
2023-03-25T19:38:27.402Z,7.90
2023-03-25T19:40:30.607Z,7.90
2023-03-25T19:42:32.058Z,7.89
2023-03-25T19:44:33.500Z,7.90
2023-03-25T19:46:35.541Z,7.90
2023-03-25T19:48:37.089Z,7.92
2023-03-25T19:50:40.750Z,7.92
2023-03-25T19:52:43.547Z,7.92
2023-03-25T19:54:46.835Z,7.93
2023-03-25T19:56:48.440Z,7.93
2023-03-25T19:58:49.938Z,7.93
2023-03-25T20:00:51.770Z,7.93
2023-03-25T20:03:00.640Z,7.94
2023-03-25T20:05:02.663Z,7.93
2023-03-25T20:07:04.162Z,7.94
2023-03-25T20:09:05.792Z,7.91
2023-03-25T20:11:11.926Z,7.90
2023-03-25T20:13:13.428Z,7.91
2023-03-25T20:15:16.611Z,7.93
2023-03-25T20:17:18.392Z,7.93
2023-03-25T20:19:19.861Z,7.92
2023-03-25T20:21:22.968Z,7.92
2023-03-25T20:23:24.452Z,7.95
2023-03-25T20:25:25.926Z,7.93
2023-03-25T20:27:28.314Z,7.92
2023-03-25T20:29:29.781Z,7.89
2023-03-25T20:31:33.206Z,7.86
2023-03-25T20:33:34.800Z,7.83
2023-03-25T20:35:36.309Z,7.80
2023-03-25T20:37:39.762Z,7.78
2023-03-25T20:39:41.607Z,7.78
2023-03-25T20:41:43.087Z,7.78
2023-03-25T20:43:44.749Z,7.76
2023-03-25T20:45:46.221Z,7.74
2023-03-25T20:47:47.813Z,7.70
2023-03-25T20:49:49.304Z,7.68
2023-03-25T20:51:51.336Z,7.67
2023-03-25T20:53:53.382Z,7.69
2023-03-25T20:55:56.837Z,7.67
2023-03-25T20:57:58.370Z,7.67
2023-03-25T21:00:00.283Z,7.68
2023-03-25T21:02:01.881Z,7.68
2023-03-25T21:04:04.365Z,7.69
2023-03-25T21:06:16.835Z,7.69
2023-03-25T21:08:31.785Z,7.71
2023-03-25T21:10:33.266Z,7.74
2023-03-25T21:12:43.589Z,7.74
2023-03-25T21:14:45.617Z,7.78
2023-03-25T21:16:47.659Z,7.76
2023-03-25T21:18:50.295Z,7.75
2023-03-25T21:20:56.580Z,7.74
2023-03-25T21:22:59.201Z,7.72
2023-03-25T21:25:00.840Z,7.71
2023-03-25T21:27:03.029Z,7.71
2023-03-25T21:29:04.669Z,7.71
2023-03-25T21:31:08.996Z,7.72
2023-03-25T21:33:10.797Z,7.68
2023-03-25T21:35:12.291Z,7.69
2023-03-25T21:37:13.836Z,7.69
2023-03-25T21:39:15.403Z,7.68
2023-03-25T21:41:16.889Z,7.69
2023-03-25T21:43:18.348Z,7.69
2023-03-25T21:45:19.938Z,7.67
2023-03-25T21:47:22.423Z,7.68
2023-03-25T21:49:24.196Z,7.66
2023-03-25T21:51:26.626Z,7.66
2023-03-25T21:53:32.655Z,7.67
2023-03-25T21:55:34.294Z,7.65
2023-03-25T21:57:38.319Z,7.64
2023-03-25T21:59:40.064Z,7.62
2023-03-25T22:01:41.762Z,7.60
2023-03-25T22:03:46.493Z,7.59
2023-03-25T22:05:48.074Z,7.58
2023-03-25T22:07:49.587Z,7.59
2023-03-25T22:09:51.143Z,7.59
2023-03-25T22:11:52.600Z,7.60
2023-03-25T22:13:54.177Z,7.61
2023-03-25T22:15:55.980Z,7.62
2023-03-25T22:17:57.601Z,7.65
2023-03-25T22:19:59.158Z,7.64
2023-03-25T22:22:02.719Z,7.63
2023-03-25T22:24:06.646Z,7.63
2023-03-25T22:26:09.968Z,7.61
2023-03-25T22:28:11.773Z,7.64
2023-03-25T22:30:13.980Z,7.65
2023-03-25T22:32:15.455Z,7.66
2023-03-25T22:34:16.921Z,7.68
2023-03-25T22:36:18.678Z,7.65
2023-03-25T22:38:21.294Z,7.64
2023-03-25T22:40:23.903Z,7.63
2023-03-25T22:42:25.877Z,7.64
2023-03-25T22:44:28.195Z,7.64
2023-03-25T22:46:29.751Z,7.64
2023-03-25T22:48:31.847Z,7.63
2023-03-25T22:50:34.648Z,7.65
2023-03-25T22:52:36.329Z,7.62
2023-03-25T22:54:37.989Z,7.60
2023-03-25T22:56:39.786Z,7.61
2023-03-25T22:58:41.637Z,7.63
2023-03-25T23:00:43.166Z,7.61
2023-03-25T23:02:47.011Z,7.61
2023-03-25T23:04:48.644Z,7.62
2023-03-25T23:07:00.896Z,7.63
2023-03-25T23:09:09.757Z,7.62
2023-03-25T23:11:16.833Z,7.61
2023-03-25T23:13:18.727Z,7.64
2023-03-25T23:15:20.322Z,7.60
2023-03-25T23:17:23.838Z,7.60
2023-03-25T23:19:25.295Z,7.59
2023-03-25T23:21:29.901Z,7.57
2023-03-25T23:23:31.483Z,7.57
2023-03-25T23:25:32.942Z,7.55
2023-03-25T23:27:34.425Z,7.56
2023-03-25T23:29:36.527Z,7.55
2023-03-25T23:31:41.360Z,7.57
2023-03-25T23:33:43.152Z,7.54
2023-03-25T23:35:44.662Z,7.51
2023-03-25T23:37:46.354Z,7.50
2023-03-25T23:39:47.826Z,7.46
2023-03-25T23:41:50.739Z,7.47
2023-03-25T23:43:54.019Z,7.46
2023-03-25T23:45:55.732Z,7.43
2023-03-25T23:47:57.524Z,7.41
2023-03-25T23:50:02.013Z,7.40
2023-03-25T23:52:05.397Z,7.41
2023-03-25T23:54:09.971Z,7.42
2023-03-25T23:56:14.307Z,7.40
2023-03-25T23:58:16.167Z,7.39
